This is the latest recevied weather packets stored in our database for station/object K0PFX-8. If no packets are shown the sender has not sent any weather packets the latest 10 day(s).
| Time | Temp. | Humidity | Pressure | Rain* | Wind** | Luminosity | Snow |
|---|---|---|---|---|---|---|---|
| 1777651594 | 13.89° C | 38% | 1020.3 hPa | 0 mm | 4.02 m/s, 288° | - | - |
| 1777650695 | 13.33° C | 37% | 1020.4 hPa | 0 mm | 3.13 m/s, 287° | - | - |
| 1777649794 | 13.33° C | 36% | 1020.3 hPa | 0 mm | 2.24 m/s, 335° | - | - |
| 1777648896 | 12.78° C | 45% | 1020.4 hPa | 0 mm | 0 m/s | - | - |
| 1777647995 | 12.78° C | 49% | 1020.5 hPa | 0 mm | 2.24 m/s, 245° | - | - |
| 1777647096 | 12.22° C | 44% | 1020.5 hPa | 0 mm | 2.24 m/s, 359° | - | - |
| 1777646195 | 12.22° C | 46% | 1020.5 hPa | 0 mm | 1.34 m/s, 319° | - | - |
| 1777645297 | 11.67° C | 45% | 1020.4 hPa | 0 mm | 1.34 m/s, 325° | - | - |
| 1777644396 | 11.67° C | 47% | 1020.2 hPa | 0 mm | 0 m/s | - | - |
| 1777643498 | 11.11° C | 49% | 1020.1 hPa | 0 mm | 0 m/s | - | - |
| 1777642597 | 11.11° C | 48% | 1020.1 hPa | 0 mm | 2.68 m/s, 28° | - | - |
| 1777641698 | 11.67° C | 48% | 1020 hPa | 0 mm | 2.24 m/s, 45° | - | - |
| 1777640797 | 10.56° C | 62% | 1020 hPa | 0 mm | 0 m/s | - | - |
| 1777639899 | 9.44° C | 67% | 1020.2 hPa | 0 mm | 0 m/s | - | - |
| 1777638998 | 8.89° C | 75% | 1020.3 hPa | 0 mm | 0 m/s | - | - |
| 1777638100 | 7.78° C | 82% | 1020.2 hPa | 0 mm | 1.34 m/s, 238° | - | - |
| 1777637199 | 7.22° C | 86% | 1020.2 hPa | 0 mm | 0 m/s | - | - |
| 1777636301 | 7.22° C | 85% | 1020 hPa | 0 mm | 0 m/s | - | - |
| 1777635399 | 7.22° C | 83% | 1020 hPa | 0 mm | 0 m/s | - | - |
| 1777634501 | 7.78° C | 81% | 1019.6 hPa | 0 mm | 0 m/s | - | - |
| 1777633600 | 8.33° C | 77% | 1019.6 hPa | 0 mm | 0 m/s | - | - |
| 1777632701 | 8.33° C | 75% | 1019.5 hPa | 0 mm | 0 m/s | - | - |
| 1777631799 | 8.89° C | 71% | 1019.4 hPa | 0 mm | 0 m/s | - | - |
| 1777630901 | 8.89° C | 68% | 1019.4 hPa | 0 mm | 0.45 m/s, 297° | - | - |
| 1777630000 | 8.89° C | 68% | 1019.1 hPa | 0 mm | 0 m/s | - | - |
* Rain latest hour (hover to see other rain measurements)
** Current wind speed in m/s (hover to see current wind gust speed)